sensor_id;sensor_type;location;lat;lon;timestamp;P1;durP1;ratioP1;P2;durP2;ratioP2
55067;SDS011;40965;52.368;9.712;2024-03-06T00:01:35;14.85;;;9.13;;
55067;SDS011;40965;52.368;9.712;2024-03-06T00:04:02;15.77;;;9.98;;
55067;SDS011;40965;52.368;9.712;2024-03-06T00:06:31;18.55;;;10.27;;
55067;SDS011;40965;52.368;9.712;2024-03-06T00:08:58;18.77;;;9.75;;
55067;SDS011;40965;52.368;9.712;2024-03-06T00:11:27;17.60;;;9.95;;
55067;SDS011;40965;52.368;9.712;2024-03-06T00:13:57;18.65;;;10.00;;
55067;SDS011;40965;52.368;9.712;2024-03-06T00:16:25;20.67;;;9.65;;
55067;SDS011;40965;52.368;9.712;2024-03-06T00:18:52;13.43;;;9.05;;
55067;SDS011;40965;52.368;9.712;2024-03-06T00:21:20;18.92;;;10.48;;
55067;SDS011;40965;52.368;9.712;2024-03-06T00:23:48;15.85;;;10.05;;
55067;SDS011;40965;52.368;9.712;2024-03-06T00:26:14;14.27;;;9.13;;
55067;SDS011;40965;52.368;9.712;2024-03-06T00:28:43;22.55;;;10.07;;
55067;SDS011;40965;52.368;9.712;2024-03-06T00:31:10;22.23;;;11.02;;
55067;SDS011;40965;52.368;9.712;2024-03-06T00:33:42;17.02;;;9.80;;
55067;SDS011;40965;52.368;9.712;2024-03-06T00:36:09;14.70;;;10.02;;
55067;SDS011;40965;52.368;9.712;2024-03-06T00:38:36;17.65;;;10.52;;
55067;SDS011;40965;52.368;9.712;2024-03-06T00:41:02;15.55;;;9.50;;
55067;SDS011;40965;52.368;9.712;2024-03-06T00:43:29;17.88;;;9.85;;
55067;SDS011;40965;52.368;9.712;2024-03-06T00:45:56;14.00;;;9.82;;
55067;SDS011;40965;52.368;9.712;2024-03-06T00:48:25;16.33;;;8.73;;
55067;SDS011;40965;52.368;9.712;2024-03-06T00:50:58;13.60;;;9.93;;
55067;SDS011;40965;52.368;9.712;2024-03-06T00:53:24;21.35;;;10.25;;
55067;SDS011;40965;52.368;9.712;2024-03-06T00:55:56;19.23;;;10.65;;
55067;SDS011;40965;52.368;9.712;2024-03-06T00:58:23;26.60;;;11.50;;
55067;SDS011;40965;52.368;9.712;2024-03-06T01:00:51;24.83;;;10.18;;
55067;SDS011;40965;52.368;9.712;2024-03-06T01:03:17;16.73;;;9.90;;
55067;SDS011;40965;52.368;9.712;2024-03-06T01:05:45;15.35;;;9.63;;
55067;SDS011;40965;52.368;9.712;2024-03-06T01:08:14;16.23;;;10.38;;
55067;SDS011;40965;52.368;9.712;2024-03-06T01:10:44;14.85;;;9.65;;
55067;SDS011;40965;52.368;9.712;2024-03-06T01:13:10;17.17;;;10.05;;
55067;SDS011;40965;52.368;9.712;2024-03-06T01:15:38;18.05;;;10.35;;
55067;SDS011;40965;52.368;9.712;2024-03-06T01:18:07;19.95;;;10.77;;
55067;SDS011;40965;52.368;9.712;2024-03-06T01:20:34;21.85;;;11.18;;
55067;SDS011;40965;52.368;9.712;2024-03-06T01:23:01;17.30;;;9.88;;
55067;SDS011;40965;52.368;9.712;2024-03-06T01:25:29;16.65;;;10.20;;
55067;SDS011;40965;52.368;9.712;2024-03-06T01:27:56;17.77;;;10.25;;
55067;SDS011;40965;52.368;9.712;2024-03-06T01:30:22;16.60;;;10.68;;
55067;SDS011;40965;52.368;9.712;2024-03-06T01:32:49;17.63;;;10.30;;
55067;SDS011;40965;52.368;9.712;2024-03-06T01:35:16;16.30;;;10.35;;
55067;SDS011;40965;52.368;9.712;2024-03-06T01:37:43;16.15;;;9.93;;
55067;SDS011;40965;52.368;9.712;2024-03-06T01:40:09;19.38;;;11.65;;
55067;SDS011;40965;52.368;9.712;2024-03-06T01:42:37;16.23;;;10.80;;
55067;SDS011;40965;52.368;9.712;2024-03-06T01:45:07;19.15;;;11.00;;
55067;SDS011;40965;52.368;9.712;2024-03-06T01:47:35;19.75;;;10.55;;
55067;SDS011;40965;52.368;9.712;2024-03-06T01:50:02;17.90;;;10.90;;
55067;SDS011;40965;52.368;9.712;2024-03-06T01:52:31;19.58;;;11.63;;
55067;SDS011;40965;52.368;9.712;2024-03-06T01:54:57;18.50;;;10.63;;
55067;SDS011;40965;52.368;9.712;2024-03-06T01:57:24;21.80;;;11.20;;
55067;SDS011;40965;52.368;9.712;2024-03-06T01:59:51;16.95;;;11.23;;
55067;SDS011;40965;52.368;9.712;2024-03-06T02:02:19;23.73;;;11.50;;
55067;SDS011;40965;52.368;9.712;2024-03-06T02:04:46;18.50;;;11.27;;
55067;SDS011;40965;52.368;9.712;2024-03-06T02:07:19;18.20;;;10.95;;
55067;SDS011;40965;52.368;9.712;2024-03-06T02:09:47;14.90;;;10.43;;
55067;SDS011;40965;52.368;9.712;2024-03-06T02:12:14;17.95;;;11.32;;
55067;SDS011;40965;52.368;9.712;2024-03-06T02:14:41;20.90;;;10.88;;
55067;SDS011;40965;52.368;9.712;2024-03-06T02:17:10;16.27;;;10.30;;
55067;SDS011;40965;52.368;9.712;2024-03-06T02:19:38;18.55;;;11.68;;
55067;SDS011;40965;52.368;9.712;2024-03-06T05:41:50;24.30;;;12.35;;
55067;SDS011;40965;52.368;9.712;2024-03-06T05:44:17;23.52;;;14.93;;
55067;SDS011;40965;52.368;9.712;2024-03-06T05:47:26;21.20;;;13.40;;
55067;SDS011;40965;52.368;9.712;2024-03-06T05:50:33;25.45;;;13.65;;
55067;SDS011;40965;52.368;9.712;2024-03-06T05:53:16;25.13;;;13.50;;
55067;SDS011;40965;52.368;9.712;2024-03-06T05:55:43;21.75;;;12.18;;
55067;SDS011;40965;52.368;9.712;2024-03-06T05:58:14;21.10;;;13.02;;
55067;SDS011;40965;52.368;9.712;2024-03-06T06:00:43;21.25;;;12.93;;
55067;SDS011;40965;52.368;9.712;2024-03-06T06:03:10;22.45;;;14.07;;
55067;SDS011;40965;52.368;9.712;2024-03-06T06:05:41;21.30;;;11.77;;
55067;SDS011;40965;52.368;9.712;2024-03-06T06:08:07;20.65;;;13.48;;
55067;SDS011;40965;52.368;9.712;2024-03-06T06:10:42;22.90;;;12.75;;
55067;SDS011;40965;52.368;9.712;2024-03-06T06:13:09;21.45;;;15.13;;
55067;SDS011;40965;52.368;9.712;2024-03-06T06:15:39;25.02;;;14.55;;
55067;SDS011;40965;52.368;9.712;2024-03-06T06:18:06;30.98;;;14.15;;
55067;SDS011;40965;52.368;9.712;2024-03-06T06:20:34;22.73;;;15.68;;
55067;SDS011;40965;52.368;9.712;2024-03-06T06:23:03;26.73;;;14.93;;
55067;SDS011;40965;52.368;9.712;2024-03-06T06:25:39;22.92;;;13.45;;
55067;SDS011;40965;52.368;9.712;2024-03-06T06:28:06;24.25;;;13.32;;
55067;SDS011;40965;52.368;9.712;2024-03-06T06:30:35;21.80;;;12.65;;
55067;SDS011;40965;52.368;9.712;2024-03-06T06:33:04;24.77;;;12.40;;
55067;SDS011;40965;52.368;9.712;2024-03-06T06:35:31;20.75;;;11.90;;
55067;SDS011;40965;52.368;9.712;2024-03-06T06:38:04;25.80;;;13.68;;
55067;SDS011;40965;52.368;9.712;2024-03-06T06:40:31;22.20;;;13.85;;
55067;SDS011;40965;52.368;9.712;2024-03-06T06:43:22;29.85;;;14.27;;
55067;SDS011;40965;52.368;9.712;2024-03-06T06:45:51;25.80;;;13.98;;
55067;SDS011;40965;52.368;9.712;2024-03-06T06:48:33;27.95;;;14.30;;
55067;SDS011;40965;52.368;9.712;2024-03-06T06:51:00;26.05;;;14.32;;
55067;SDS011;40965;52.368;9.712;2024-03-06T06:53:32;20.73;;;13.27;;
55067;SDS011;40965;52.368;9.712;2024-03-06T06:56:05;22.60;;;13.57;;
55067;SDS011;40965;52.368;9.712;2024-03-06T06:58:36;20.63;;;13.93;;
55067;SDS011;40965;52.368;9.712;2024-03-06T07:01:08;21.25;;;13.65;;
55067;SDS011;40965;52.368;9.712;2024-03-06T07:03:36;28.65;;;14.38;;
55067;SDS011;40965;52.368;9.712;2024-03-06T07:06:08;22.33;;;14.25;;
55067;SDS011;40965;52.368;9.712;2024-03-06T07:08:37;25.63;;;13.07;;
55067;SDS011;40965;52.368;9.712;2024-03-06T07:11:04;19.65;;;13.30;;
55067;SDS011;40965;52.368;9.712;2024-03-06T07:13:31;27.00;;;14.52;;
55067;SDS011;40965;52.368;9.712;2024-03-06T07:16:03;24.92;;;13.05;;
55067;SDS011;40965;52.368;9.712;2024-03-06T07:18:36;26.92;;;14.63;;
55067;SDS011;40965;52.368;9.712;2024-03-06T07:21:05;23.00;;;12.95;;
55067;SDS011;40965;52.368;9.712;2024-03-06T07:23:41;23.50;;;14.38;;
55067;SDS011;40965;52.368;9.712;2024-03-06T07:26:17;28.67;;;14.48;;
55067;SDS011;40965;52.368;9.712;2024-03-06T07:28:45;21.70;;;12.88;;
55067;SDS011;40965;52.368;9.712;2024-03-06T07:31:26;22.65;;;13.63;;
55067;SDS011;40965;52.368;9.712;2024-03-06T07:34:08;22.25;;;13.00;;
55067;SDS011;40965;52.368;9.712;2024-03-06T07:36:41;23.63;;;13.35;;
55067;SDS011;40965;52.368;9.712;2024-03-06T07:39:16;21.33;;;14.05;;
55067;SDS011;40965;52.368;9.712;2024-03-06T07:41:43;29.52;;;13.40;;
55067;SDS011;40965;52.368;9.712;2024-03-06T07:44:11;27.27;;;13.88;;
55067;SDS011;40965;52.368;9.712;2024-03-06T07:46:41;23.73;;;12.90;;
55067;SDS011;40965;52.368;9.712;2024-03-06T07:49:14;23.40;;;12.82;;
55067;SDS011;40965;52.368;9.712;2024-03-06T07:52:01;21.40;;;12.30;;
55067;SDS011;40965;52.368;9.712;2024-03-06T07:55:10;21.75;;;13.07;;
55067;SDS011;40965;52.368;9.712;2024-03-06T07:57:37;18.30;;;12.50;;
55067;SDS011;40965;52.368;9.712;2024-03-06T08:00:05;22.20;;;12.45;;
55067;SDS011;40965;52.368;9.712;2024-03-06T08:02:42;22.88;;;13.27;;
55067;SDS011;40965;52.368;9.712;2024-03-06T08:05:11;23.23;;;14.45;;
55067;SDS011;40965;52.368;9.712;2024-03-06T08:07:40;20.58;;;12.90;;
55067;SDS011;40965;52.368;9.712;2024-03-06T08:10:12;25.75;;;13.95;;
55067;SDS011;40965;52.368;9.712;2024-03-06T08:15:13;22.15;;;13.18;;
55067;SDS011;40965;52.368;9.712;2024-03-06T08:17:51;22.63;;;13.57;;
55067;SDS011;40965;52.368;9.712;2024-03-06T08:20:17;22.33;;;13.30;;
55067;SDS011;40965;52.368;9.712;2024-03-06T08:22:44;27.42;;;14.77;;
55067;SDS011;40965;52.368;9.712;2024-03-06T08:25:16;24.42;;;13.85;;
55067;SDS011;40965;52.368;9.712;2024-03-06T08:27:42;21.08;;;13.75;;
55067;SDS011;40965;52.368;9.712;2024-03-06T08:30:15;23.90;;;13.55;;
55067;SDS011;40965;52.368;9.712;2024-03-06T08:32:58;22.17;;;12.40;;
55067;SDS011;40965;52.368;9.712;2024-03-06T08:35:25;22.10;;;13.00;;
55067;SDS011;40965;52.368;9.712;2024-03-06T08:37:52;22.17;;;12.38;;
55067;SDS011;40965;52.368;9.712;2024-03-06T08:40:20;22.15;;;12.98;;
55067;SDS011;40965;52.368;9.712;2024-03-06T08:42:48;22.48;;;13.02;;
55067;SDS011;40965;52.368;9.712;2024-03-06T08:45:17;25.77;;;14.75;;
55067;SDS011;40965;52.368;9.712;2024-03-06T08:47:52;22.38;;;13.75;;
55067;SDS011;40965;52.368;9.712;2024-03-06T08:50:20;25.02;;;13.93;;
55067;SDS011;40965;52.368;9.712;2024-03-06T08:52:49;22.08;;;14.70;;
55067;SDS011;40965;52.368;9.712;2024-03-06T08:55:18;26.95;;;13.52;;
55067;SDS011;40965;52.368;9.712;2024-03-06T08:57:47;19.42;;;12.30;;
55067;SDS011;40965;52.368;9.712;2024-03-06T09:00:15;22.35;;;15.75;;
55067;SDS011;40965;52.368;9.712;2024-03-06T09:02:46;23.23;;;13.95;;
55067;SDS011;40965;52.368;9.712;2024-03-06T09:05:14;23.38;;;12.93;;
55067;SDS011;40965;52.368;9.712;2024-03-06T09:07:41;20.77;;;13.20;;
55067;SDS011;40965;52.368;9.712;2024-03-06T09:10:09;27.90;;;14.05;;
55067;SDS011;40965;52.368;9.712;2024-03-06T09:12:38;19.63;;;12.60;;
55067;SDS011;40965;52.368;9.712;2024-03-06T09:15:06;22.48;;;13.45;;
55067;SDS011;40965;52.368;9.712;2024-03-06T09:17:34;22.50;;;14.00;;
55067;SDS011;40965;52.368;9.712;2024-03-06T09:20:01;25.15;;;13.93;;
55067;SDS011;40965;52.368;9.712;2024-03-06T09:22:35;22.08;;;14.25;;
55067;SDS011;40965;52.368;9.712;2024-03-06T09:25:06;27.40;;;14.73;;
55067;SDS011;40965;52.368;9.712;2024-03-06T09:27:42;26.88;;;14.75;;
55067;SDS011;40965;52.368;9.712;2024-03-06T09:30:16;23.48;;;13.80;;
55067;SDS011;40965;52.368;9.712;2024-03-06T09:32:43;21.67;;;13.85;;
55067;SDS011;40965;52.368;9.712;2024-03-06T09:35:14;24.77;;;14.88;;
55067;SDS011;40965;52.368;9.712;2024-03-06T09:37:44;26.65;;;15.15;;
55067;SDS011;40965;52.368;9.712;2024-03-06T09:40:21;24.00;;;14.27;;
55067;SDS011;40965;52.368;9.712;2024-03-06T09:42:49;28.88;;;16.55;;
55067;SDS011;40965;52.368;9.712;2024-03-06T09:45:17;25.23;;;15.52;;
55067;SDS011;40965;52.368;9.712;2024-03-06T09:47:44;26.40;;;15.57;;
55067;SDS011;40965;52.368;9.712;2024-03-06T09:50:21;29.73;;;15.95;;
55067;SDS011;40965;52.368;9.712;2024-03-06T09:52:52;24.40;;;14.68;;
55067;SDS011;40965;52.368;9.712;2024-03-06T09:55:24;23.67;;;15.40;;
55067;SDS011;40965;52.368;9.712;2024-03-06T09:57:52;31.33;;;16.02;;
55067;SDS011;40965;52.368;9.712;2024-03-06T10:00:22;24.33;;;14.30;;
55067;SDS011;40965;52.368;9.712;2024-03-06T10:02:59;27.00;;;15.23;;
55067;SDS011;40965;52.368;9.712;2024-03-06T10:05:26;24.98;;;15.00;;
55067;SDS011;40965;52.368;9.712;2024-03-06T10:07:56;27.67;;;15.43;;
55067;SDS011;40965;52.368;9.712;2024-03-06T10:10:24;23.88;;;14.77;;
55067;SDS011;40965;52.368;9.712;2024-03-06T10:12:52;26.73;;;15.98;;
55067;SDS011;40965;52.368;9.712;2024-03-06T10:15:19;24.88;;;14.80;;
55067;SDS011;40965;52.368;9.712;2024-03-06T10:18:12;26.10;;;15.93;;
55067;SDS011;40965;52.368;9.712;2024-03-06T10:20:43;25.45;;;14.95;;
55067;SDS011;40965;52.368;9.712;2024-03-06T10:23:10;27.17;;;16.17;;
55067;SDS011;40965;52.368;9.712;2024-03-06T10:25:38;22.38;;;15.02;;
55067;SDS011;40965;52.368;9.712;2024-03-06T10:28:09;25.70;;;15.13;;
55067;SDS011;40965;52.368;9.712;2024-03-06T10:30:38;26.52;;;15.45;;
55067;SDS011;40965;52.368;9.712;2024-03-06T10:33:09;28.30;;;15.95;;
55067;SDS011;40965;52.368;9.712;2024-03-06T10:35:39;24.20;;;15.20;;
55067;SDS011;40965;52.368;9.712;2024-03-06T10:38:13;20.75;;;14.52;;
55067;SDS011;40965;52.368;9.712;2024-03-06T10:40:42;34.25;;;15.93;;
55067;SDS011;40965;52.368;9.712;2024-03-06T10:43:10;23.58;;;14.88;;
55067;SDS011;40965;52.368;9.712;2024-03-06T10:48:19;26.23;;;15.70;;
55067;SDS011;40965;52.368;9.712;2024-03-06T10:50:48;28.80;;;14.95;;
55067;SDS011;40965;52.368;9.712;2024-03-06T10:53:17;27.13;;;16.25;;
55067;SDS011;40965;52.368;9.712;2024-03-06T10:55:46;36.15;;;16.10;;
55067;SDS011;40965;52.368;9.712;2024-03-06T10:58:15;33.58;;;16.48;;
55067;SDS011;40965;52.368;9.712;2024-03-06T11:00:47;23.17;;;15.70;;
55067;SDS011;40965;52.368;9.712;2024-03-06T11:03:17;26.35;;;15.32;;
55067;SDS011;40965;52.368;9.712;2024-03-06T11:05:52;24.65;;;16.10;;
55067;SDS011;40965;52.368;9.712;2024-03-06T11:08:22;23.70;;;15.63;;
55067;SDS011;40965;52.368;9.712;2024-03-06T11:10:50;24.40;;;16.08;;
55067;SDS011;40965;52.368;9.712;2024-03-06T11:13:22;25.63;;;15.77;;
55067;SDS011;40965;52.368;9.712;2024-03-06T11:23:32;30.52;;;15.98;;
55067;SDS011;40965;52.368;9.712;2024-03-06T11:26:03;20.20;;;14.93;;
55067;SDS011;40965;52.368;9.712;2024-03-06T11:28:32;29.95;;;16.10;;
55067;SDS011;40965;52.368;9.712;2024-03-06T11:31:01;25.90;;;15.13;;
55067;SDS011;40965;52.368;9.712;2024-03-06T11:33:41;24.80;;;15.00;;
55067;SDS011;40965;52.368;9.712;2024-03-06T11:36:20;24.20;;;16.85;;
55067;SDS011;40965;52.368;9.712;2024-03-06T11:44:21;23.67;;;13.48;;
55067;SDS011;40965;52.368;9.712;2024-03-06T11:47:12;25.90;;;14.82;;
55067;SDS011;40965;52.368;9.712;2024-03-06T11:49:43;18.67;;;13.32;;
55067;SDS011;40965;52.368;9.712;2024-03-06T11:52:19;25.15;;;14.10;;
55067;SDS011;40965;52.368;9.712;2024-03-06T11:54:49;26.55;;;16.20;;
55067;SDS011;40965;52.368;9.712;2024-03-06T11:57:22;26.27;;;14.95;;
55067;SDS011;40965;52.368;9.712;2024-03-06T12:00:25;22.60;;;13.20;;
55067;SDS011;40965;52.368;9.712;2024-03-06T12:03:42;26.60;;;13.90;;
55067;SDS011;40965;52.368;9.712;2024-03-06T12:06:15;24.13;;;13.50;;
55067;SDS011;40965;52.368;9.712;2024-03-06T12:08:44;27.02;;;14.23;;
55067;SDS011;40965;52.368;9.712;2024-03-06T12:11:12;21.35;;;13.90;;
55067;SDS011;40965;52.368;9.712;2024-03-06T12:13:43;24.52;;;14.63;;
55067;SDS011;40965;52.368;9.712;2024-03-06T12:16:13;20.42;;;13.55;;
55067;SDS011;40965;52.368;9.712;2024-03-06T12:18:42;20.00;;;13.40;;
55067;SDS011;40965;52.368;9.712;2024-03-06T12:21:12;24.02;;;14.02;;
55067;SDS011;40965;52.368;9.712;2024-03-06T12:23:41;23.42;;;14.48;;
55067;SDS011;40965;52.368;9.712;2024-03-06T12:26:09;25.95;;;14.25;;
55067;SDS011;40965;52.368;9.712;2024-03-06T12:28:38;23.52;;;15.15;;
55067;SDS011;40965;52.368;9.712;2024-03-06T12:31:12;22.52;;;14.70;;
55067;SDS011;40965;52.368;9.712;2024-03-06T12:33:41;18.45;;;12.35;;
55067;SDS011;40965;52.368;9.712;2024-03-06T12:36:08;20.20;;;12.77;;
55067;SDS011;40965;52.368;9.712;2024-03-06T12:38:36;22.95;;;14.65;;
55067;SDS011;40965;52.368;9.712;2024-03-06T12:41:05;17.98;;;12.93;;
55067;SDS011;40965;52.368;9.712;2024-03-06T12:43:32;21.63;;;14.95;;
55067;SDS011;40965;52.368;9.712;2024-03-06T12:46:02;22.80;;;14.00;;
55067;SDS011;40965;52.368;9.712;2024-03-06T12:48:30;23.38;;;14.20;;
55067;SDS011;40965;52.368;9.712;2024-03-06T12:50:58;22.80;;;13.98;;
55067;SDS011;40965;52.368;9.712;2024-03-06T12:53:30;24.52;;;15.50;;
55067;SDS011;40965;52.368;9.712;2024-03-06T12:56:00;26.58;;;14.48;;
55067;SDS011;40965;52.368;9.712;2024-03-06T12:58:28;20.95;;;13.77;;
55067;SDS011;40965;52.368;9.712;2024-03-06T13:00:57;21.40;;;13.85;;
55067;SDS011;40965;52.368;9.712;2024-03-06T13:03:24;20.98;;;13.73;;
55067;SDS011;40965;52.368;9.712;2024-03-06T13:05:56;28.00;;;15.77;;
55067;SDS011;40965;52.368;9.712;2024-03-06T13:08:23;20.85;;;14.80;;
55067;SDS011;40965;52.368;9.712;2024-03-06T13:10:51;22.65;;;13.88;;
55067;SDS011;40965;52.368;9.712;2024-03-06T13:13:17;21.70;;;13.85;;
55067;SDS011;40965;52.368;9.712;2024-03-06T13:15:49;24.48;;;13.95;;
55067;SDS011;40965;52.368;9.712;2024-03-06T13:18:17;22.63;;;14.30;;
55067;SDS011;40965;52.368;9.712;2024-03-06T13:20:45;26.33;;;13.93;;
55067;SDS011;40965;52.368;9.712;2024-03-06T13:23:12;22.58;;;14.57;;
55067;SDS011;40965;52.368;9.712;2024-03-06T13:25:39;26.55;;;13.80;;
55067;SDS011;40965;52.368;9.712;2024-03-06T13:28:08;27.92;;;15.02;;
55067;SDS011;40965;52.368;9.712;2024-03-06T13:30:36;24.20;;;15.95;;
55067;SDS011;40965;52.368;9.712;2024-03-06T13:33:05;23.70;;;14.70;;
55067;SDS011;40965;52.368;9.712;2024-03-06T13:35:43;23.55;;;15.25;;
55067;SDS011;40965;52.368;9.712;2024-03-06T13:38:11;20.58;;;13.82;;
55067;SDS011;40965;52.368;9.712;2024-03-06T13:40:45;22.90;;;14.95;;
55067;SDS011;40965;52.368;9.712;2024-03-06T13:43:16;19.05;;;13.70;;
55067;SDS011;40965;52.368;9.712;2024-03-06T13:45:49;25.20;;;14.63;;
55067;SDS011;40965;52.368;9.712;2024-03-06T13:48:18;22.77;;;15.05;;
55067;SDS011;40965;52.368;9.712;2024-03-06T13:50:47;29.90;;;17.45;;
55067;SDS011;40965;52.368;9.712;2024-03-06T13:53:15;24.23;;;16.20;;
55067;SDS011;40965;52.368;9.712;2024-03-06T13:55:43;26.25;;;16.05;;
55067;SDS011;40965;52.368;9.712;2024-03-06T13:58:11;24.85;;;16.10;;
55067;SDS011;40965;52.368;9.712;2024-03-06T14:00:39;23.25;;;15.63;;
55067;SDS011;40965;52.368;9.712;2024-03-06T14:03:08;21.30;;;16.13;;
55067;SDS011;40965;52.368;9.712;2024-03-06T14:05:37;23.63;;;15.38;;
55067;SDS011;40965;52.368;9.712;2024-03-06T14:08:05;30.13;;;15.90;;
55067;SDS011;40965;52.368;9.712;2024-03-06T14:10:32;23.88;;;17.05;;
55067;SDS011;40965;52.368;9.712;2024-03-06T14:13:02;24.23;;;17.17;;
55067;SDS011;40965;52.368;9.712;2024-03-06T14:15:31;27.83;;;17.48;;
55067;SDS011;40965;52.368;9.712;2024-03-06T14:17:59;23.10;;;16.48;;
55067;SDS011;40965;52.368;9.712;2024-03-06T14:20:37;22.83;;;16.52;;
55067;SDS011;40965;52.368;9.712;2024-03-06T14:23:15;29.67;;;16.88;;
55067;SDS011;40965;52.368;9.712;2024-03-06T14:25:43;27.33;;;16.05;;
55067;SDS011;40965;52.368;9.712;2024-03-06T14:28:13;32.45;;;19.05;;
55067;SDS011;40965;52.368;9.712;2024-03-06T14:30:39;21.52;;;15.98;;
55067;SDS011;40965;52.368;9.712;2024-03-06T14:33:07;29.55;;;16.55;;
55067;SDS011;40965;52.368;9.712;2024-03-06T14:35:36;22.77;;;16.92;;
55067;SDS011;40965;52.368;9.712;2024-03-06T14:38:06;24.02;;;16.70;;
55067;SDS011;40965;52.368;9.712;2024-03-06T14:40:36;19.63;;;15.27;;
55067;SDS011;40965;52.368;9.712;2024-03-06T14:43:04;24.90;;;17.02;;
55067;SDS011;40965;52.368;9.712;2024-03-06T14:45:45;23.60;;;15.95;;
55067;SDS011;40965;52.368;9.712;2024-03-06T14:48:13;21.65;;;16.80;;
55067;SDS011;40965;52.368;9.712;2024-03-06T14:50:43;20.98;;;16.35;;
55067;SDS011;40965;52.368;9.712;2024-03-06T14:53:13;18.42;;;14.65;;
55067;SDS011;40965;52.368;9.712;2024-03-06T14:55:45;19.80;;;15.60;;
55067;SDS011;40965;52.368;9.712;2024-03-06T14:58:12;18.98;;;14.38;;
55067;SDS011;40965;52.368;9.712;2024-03-06T15:00:45;25.00;;;16.00;;
55067;SDS011;40965;52.368;9.712;2024-03-06T15:03:17;26.50;;;17.50;;
55067;SDS011;40965;52.368;9.712;2024-03-06T15:05:46;23.10;;;16.02;;
55067;SDS011;40965;52.368;9.712;2024-03-06T15:08:15;23.38;;;16.20;;
55067;SDS011;40965;52.368;9.712;2024-03-06T15:10:43;25.23;;;15.27;;
55067;SDS011;40965;52.368;9.712;2024-03-06T15:13:20;29.95;;;15.00;;
55067;SDS011;40965;52.368;9.712;2024-03-06T15:15:48;18.98;;;14.73;;
55067;SDS011;40965;52.368;9.712;2024-03-06T15:18:17;28.08;;;15.63;;
55067;SDS011;40965;52.368;9.712;2024-03-06T15:20:45;20.98;;;15.15;;
55067;SDS011;40965;52.368;9.712;2024-03-06T15:23:12;21.95;;;15.52;;
55067;SDS011;40965;52.368;9.712;2024-03-06T15:25:41;19.90;;;14.95;;
55067;SDS011;40965;52.368;9.712;2024-03-06T15:28:09;21.02;;;14.70;;
55067;SDS011;40965;52.368;9.712;2024-03-06T15:30:37;18.98;;;15.15;;
55067;SDS011;40965;52.368;9.712;2024-03-06T15:33:07;23.80;;;14.05;;
55067;SDS011;40965;52.368;9.712;2024-03-06T15:35:34;23.13;;;15.07;;
55067;SDS011;40965;52.368;9.712;2024-03-06T15:38:03;21.23;;;14.77;;
55067;SDS011;40965;52.368;9.712;2024-03-06T15:40:36;19.60;;;14.13;;
55067;SDS011;40965;52.368;9.712;2024-03-06T15:43:03;22.10;;;14.73;;
55067;SDS011;40965;52.368;9.712;2024-03-06T15:45:30;22.08;;;14.07;;
55067;SDS011;40965;52.368;9.712;2024-03-06T15:47:57;18.08;;;13.88;;
55067;SDS011;40965;52.368;9.712;2024-03-06T15:50:26;17.98;;;13.95;;
55067;SDS011;40965;52.368;9.712;2024-03-06T15:52:53;21.17;;;13.30;;
55067;SDS011;40965;52.368;9.712;2024-03-06T15:58:07;19.67;;;13.95;;
55067;SDS011;40965;52.368;9.712;2024-03-06T16:00:37;19.08;;;13.00;;
55067;SDS011;40965;52.368;9.712;2024-03-06T16:03:07;19.25;;;13.45;;
55067;SDS011;40965;52.368;9.712;2024-03-06T16:05:38;21.23;;;14.60;;
55067;SDS011;40965;52.368;9.712;2024-03-06T16:08:08;20.80;;;13.95;;
55067;SDS011;40965;52.368;9.712;2024-03-06T16:10:39;20.85;;;13.63;;
55067;SDS011;40965;52.368;9.712;2024-03-06T16:13:06;27.00;;;15.10;;
55067;SDS011;40965;52.368;9.712;2024-03-06T16:15:36;21.05;;;14.45;;
55067;SDS011;40965;52.368;9.712;2024-03-06T16:18:05;27.05;;;15.73;;
55067;SDS011;40965;52.368;9.712;2024-03-06T16:20:39;24.45;;;15.85;;
55067;SDS011;40965;52.368;9.712;2024-03-06T16:23:12;20.15;;;14.18;;
55067;SDS011;40965;52.368;9.712;2024-03-06T16:26:05;20.92;;;13.70;;
55067;SDS011;40965;52.368;9.712;2024-03-06T16:28:57;22.05;;;15.05;;
55067;SDS011;40965;52.368;9.712;2024-03-06T16:31:28;18.92;;;12.48;;
55067;SDS011;40965;52.368;9.712;2024-03-06T16:34:03;22.42;;;12.88;;
55067;SDS011;40965;52.368;9.712;2024-03-06T16:36:32;17.70;;;11.55;;
55067;SDS011;40965;52.368;9.712;2024-03-06T16:38:59;19.50;;;11.60;;
55067;SDS011;40965;52.368;9.712;2024-03-06T16:41:31;18.08;;;12.00;;
55067;SDS011;40965;52.368;9.712;2024-03-06T16:43:58;18.38;;;12.15;;
55067;SDS011;40965;52.368;9.712;2024-03-06T16:46:25;20.27;;;12.48;;
55067;SDS011;40965;52.368;9.712;2024-03-06T16:51:33;19.58;;;11.30;;
55067;SDS011;40965;52.368;9.712;2024-03-06T16:54:04;32.35;;;14.98;;
55067;SDS011;40965;52.368;9.712;2024-03-06T16:56:36;20.35;;;11.98;;
55067;SDS011;40965;52.368;9.712;2024-03-06T16:59:15;17.67;;;11.82;;
55067;SDS011;40965;52.368;9.712;2024-03-06T17:01:49;19.20;;;12.00;;
55067;SDS011;40965;52.368;9.712;2024-03-06T17:04:16;22.50;;;13.15;;
55067;SDS011;40965;52.368;9.712;2024-03-06T17:06:43;23.88;;;11.23;;
55067;SDS011;40965;52.368;9.712;2024-03-06T17:09:35;24.90;;;13.23;;
55067;SDS011;40965;52.368;9.712;2024-03-06T17:12:09;19.50;;;12.38;;
55067;SDS011;40965;52.368;9.712;2024-03-06T17:14:39;23.73;;;13.35;;
55067;SDS011;40965;52.368;9.712;2024-03-06T17:17:09;21.38;;;13.00;;
55067;SDS011;40965;52.368;9.712;2024-03-06T17:19:36;18.98;;;11.80;;
55067;SDS011;40965;52.368;9.712;2024-03-06T17:22:12;20.00;;;13.07;;
55067;SDS011;40965;52.368;9.712;2024-03-06T17:24:39;21.42;;;12.82;;
55067;SDS011;40965;52.368;9.712;2024-03-06T17:27:07;18.23;;;12.20;;
55067;SDS011;40965;52.368;9.712;2024-03-06T17:29:35;25.10;;;13.95;;
55067;SDS011;40965;52.368;9.712;2024-03-06T17:32:02;19.55;;;12.52;;
55067;SDS011;40965;52.368;9.712;2024-03-06T17:34:30;21.33;;;12.52;;
55067;SDS011;40965;52.368;9.712;2024-03-06T17:36:57;18.85;;;12.25;;
55067;SDS011;40965;52.368;9.712;2024-03-06T17:39:31;18.65;;;11.85;;
55067;SDS011;40965;52.368;9.712;2024-03-06T17:42:03;20.48;;;13.10;;
55067;SDS011;40965;52.368;9.712;2024-03-06T17:44:30;17.55;;;12.20;;
55067;SDS011;40965;52.368;9.712;2024-03-06T17:46:57;17.92;;;11.70;;
55067;SDS011;40965;52.368;9.712;2024-03-06T17:49:26;18.83;;;13.13;;
55067;SDS011;40965;52.368;9.712;2024-03-06T17:51:53;17.50;;;11.77;;
55067;SDS011;40965;52.368;9.712;2024-03-06T17:54:20;16.33;;;11.45;;
55067;SDS011;40965;52.368;9.712;2024-03-06T17:56:50;19.50;;;11.95;;
55067;SDS011;40965;52.368;9.712;2024-03-06T18:01:56;18.17;;;10.70;;
55067;SDS011;40965;52.368;9.712;2024-03-06T18:04:24;18.67;;;11.57;;
55067;SDS011;40965;52.368;9.712;2024-03-06T18:06:55;19.50;;;11.02;;
55067;SDS011;40965;52.368;9.712;2024-03-06T18:09:22;18.55;;;11.32;;
55067;SDS011;40965;52.368;9.712;2024-03-06T18:11:49;17.52;;;12.02;;
55067;SDS011;40965;52.368;9.712;2024-03-06T18:14:18;17.88;;;12.07;;
55067;SDS011;40965;52.368;9.712;2024-03-06T18:16:50;19.42;;;11.60;;
55067;SDS011;40965;52.368;9.712;2024-03-06T18:19:20;20.02;;;11.70;;
55067;SDS011;40965;52.368;9.712;2024-03-06T18:21:51;18.88;;;11.57;;
55067;SDS011;40965;52.368;9.712;2024-03-06T18:24:25;18.67;;;11.00;;
55067;SDS011;40965;52.368;9.712;2024-03-06T18:26:54;24.48;;;12.52;;